CCGS Neocaligus — CG7677 — position and weather

sailwx.info

Track history (hours):
 
Tides and Currents Weather Stations Pressure Air Temp Water Temp Dewpoint Dewpoint Depression Visibility Wind Speed Wind Dir Waves Ship Positions

CCGS Neocaligus

Last reported at 2017-Apr-23 21:30 UTC. Time now 2017-Apr-23 21:50 UTC.
Position N 49°46' W 124°28'.

Length 23 m; draft 3.5 m.

Type: SAR. MMSI: 316001759.

Date/timePositionNaut miles runAvg speedWind from/ knotsBaromVisibWave heightAir tempDewpointWater temp
2017-Apr-23 21:30N 49°46' W 124°28'4 8.5
2017-Apr-23 21:00N 49°48' W 124°33'3 6.6
2017-Apr-23 20:31N 49°49' W 124°38'4 8.8
2017-Apr-23 20:01N 49°45' W 124°42'3 5.1
2017-Apr-23 19:30N 49°42' W 124°43'0 0.3
2017-Apr-23 19:00N 49°42' W 124°43'3 6.2
2017-Apr-23 18:29N 49°39' W 124°41'4 8.4
2017-Apr-23 17:59N 49°36' W 124°37'4 8.7
2017-Apr-23 17:29N 49°32' W 124°34'4 8.9
2017-Apr-23 17:00N 49°28' W 124°31'1 1.2
2017-Apr-23 16:30N 49°28' W 124°30'0 0.1
2017-Apr-23 16:01N 49°28' W 124°30'3 5.7
2017-Apr-23 15:30N 49°28' W 124°34'4 8.4
2017-Apr-23 15:00N 49°28' W 124°41'2 1.9
2017-Apr-23 14:00N 49°28' W 124°44'0 0.0
2017-Apr-23 13:11N 49°28' W 124°44'0 0.0
2017-Apr-23 11:40N 49°28' W 124°44'0 0.0
2017-Apr-23 11:13N 49°28' W 124°44'0 0.0
2017-Apr-23 10:40N 49°28' W 124°44'0 0.0
2017-Apr-23 09:22N 49°28' W 124°44'0 0.0
2017-Apr-23 08:43N 49°28' W 124°44'0 0.0
2017-Apr-23 08:22N 49°28' W 124°44'0 0.0
2017-Apr-23 07:52N 49°28' W 124°44'0 0.0
2017-Apr-23 03:05N 49°28' W 124°44'0 0.0
2017-Apr-23 02:49N 49°28' W 124°44'0 0.0
2017-Apr-23 02:28N 49°28' W 124°44'2 4.1
2017-Apr-23 01:57N 49°28' W 124°40'5 9.8
2017-Apr-23 01:28N 49°27' W 124°34'4 8.9
2017-Apr-23 01:00N 49°26' W 124°27'4 8.7
2017-Apr-23 00:30N 49°25' W 124°21'5 9.2
2017-Apr-23 00:00N 49°24' W 124°14'4 9.0
2017-Apr-22 23:30N 49°23' W 124°07'2 3.2
2017-Apr-22 23:00N 49°22' W 124°05'3 5.1
2017-Apr-22 22:30N 49°21' W 124°02'5 9.4
2017-Apr-22 22:00N 49°18' W 123°55'5 9.2
2017-Apr-22 21:30N 49°16' W 123°49'3 6.0
2017-Apr-22 21:00N 49°15' W 123°45'0 0.0
2017-Apr-22 20:30N 49°15' W 123°45'1 2.9
2017-Apr-22 19:59N 49°14' W 123°47'4 9.0
2017-Apr-22 19:30N 49°12' W 123°53'3 1.3
2017-Apr-22 17:23N 49°10' W 123°56'0 0.0
2017-Apr-22 16:59N 49°10' W 123°56'0 0.0
2017-Apr-22 16:08N 49°10' W 123°56'0 0.1
2017-Apr-22 15:56N 49°10' W 123°56'0 0.2
2017-Apr-22 14:34N 49°10' W 123°56'0 0.1
2017-Apr-22 14:28N 49°10' W 123°56'0 0.0
2017-Apr-22 09:16N 49°10' W 123°56'0 0.0
2017-Apr-22 08:40N 49°10' W 123°56'0 0.0
2017-Apr-22 08:25N 49°10' W 123°56'0 0.0
2017-Apr-22 07:52N 49°10' W 123°56'0 0.0
2017-Apr-22 06:55N 49°10' W 123°56'0 0.0
2017-Apr-22 06:25N 49°10' W 123°56'0 0.0
2017-Apr-22 05:49N 49°10' W 123°56'0 0.0
2017-Apr-22 05:19N 49°10' W 123°56'0 0.0
2017-Apr-22 04:43N 49°10' W 123°56'0 0.0
2017-Apr-22 04:28N 49°10' W 123°56'0 0.0
2017-Apr-22 03:25N 49°10' W 123°56'0 0.0
2017-Apr-22 02:37N 49°10' W 123°56'0 0.0
2017-Apr-22 02:13N 49°10' W 123°56'0 0.0
2017-Apr-22 01:58N 49°10' W 123°56'0 0.0
2017-Apr-22 01:28N 49°10' W 123°56'0 0.1
2017-Apr-22 00:58N 49°10' W 123°56'0 0.0
2017-Apr-21 23:39N 49°10' W 123°56'0 0.0
2017-Apr-21 22:41N 49°10' W 123°56'0 0.0
2017-Apr-21 22:26N 49°10' W 123°56'2 5.1
2017-Apr-21 21:59N 49°12' W 123°53'5 9.7
2017-Apr-21 21:30N 49°14' W 123°47'5 9.5
2017-Apr-21 21:00N 49°15' W 123°40'5 9.4
2017-Apr-21 20:30N 49°17' W 123°33'5 9.3
2017-Apr-21 20:00N 49°18' W 123°26'5 9.3
2017-Apr-21 19:30N 49°21' W 123°20'1 1.6
2017-Apr-21 19:00N 49°20' W 123°21'1 2.4
2017-Apr-21 18:30N 49°21' W 123°20'2 3.1
2017-Apr-21 18:00N 49°20' W 123°22'1 2.8
2017-Apr-21 17:31N 49°21' W 123°20'2 4.0
2017-Apr-21 17:00N 49°23' W 123°18'5 9.5
2017-Apr-21 16:30N 49°27' W 123°15'3 5.6
2017-Apr-21 16:00N 49°30' W 123°16'0 0.1
2017-Apr-21 15:30N 49°30' W 123°15'1 1.2
2017-Apr-21 15:00N 49°29' W 123°15'4 7.4
2017-Apr-21 14:30N 49°25' W 123°15'4 2.5
2017-Apr-21 12:55N 49°23' W 123°20'0 0.0
2017-Apr-21 12:13N 49°23' W 123°20'0 0.0
2017-Apr-21 11:43N 49°23' W 123°20'0 0.0
2017-Apr-21 11:22N 49°23' W 123°20'0 0.0
2017-Apr-21 10:49N 49°23' W 123°20'0 0.0
2017-Apr-21 10:19N 49°23' W 123°20'0 0.0
2017-Apr-21 09:55N 49°23' W 123°20'0 0.0
2017-Apr-21 09:28N 49°23' W 123°20'0 0.0
2017-Apr-21 08:58N 49°23' W 123°20'0 0.0
2017-Apr-21 08:28N 49°23' W 123°20'0 0.0
2017-Apr-21 07:49N 49°23' W 123°20'0 0.0
2017-Apr-21 07:28N 49°23' W 123°20'0 0.0
2017-Apr-21 06:58N 49°23' W 123°20'0 0.0
2017-Apr-21 05:46N 49°23' W 123°20'0 0.0
2017-Apr-21 05:28N 49°23' W 123°20'0 0.0
2017-Apr-21 04:46N 49°23' W 123°20'0 0.0
2017-Apr-21 04:19N 49°23' W 123°20'0 0.0
2017-Apr-21 03:52N 49°23' W 123°20'0 0.0
2017-Apr-21 03:19N 49°23' W 123°20'0 0.0
2017-Apr-21 02:55N 49°23' W 123°20'0 0.0
2017-Apr-21 02:30N 49°23' W 123°20'2 3.2
2017-Apr-21 02:00N 49°24' W 123°18'5 9.4
2017-Apr-21 01:30N 49°29' W 123°17'5 9.2
2017-Apr-21 01:00N 49°33' W 123°16'5 9.2
2017-Apr-21 00:30N 49°37' W 123°13'2 3.4
2017-Apr-21 00:00N 49°39' W 123°14'1 2.2
2017-Apr-20 23:30N 49°38' W 123°13'1 2.1
2017-Apr-20 23:00N 49°37' W 123°14'2 3.1
2017-Apr-20 22:30N 49°39' W 123°15'1 1.5
2017-Apr-20 22:00N 49°38' W 123°15'1 1.0
2017-Apr-20 21:30N 49°39' W 123°15'4 7.8
2017-Apr-20 21:00N 49°35' W 123°15'5 9.4
2017-Apr-20 20:30N 49°30' W 123°17'5 9.1
2017-Apr-20 20:00N 49°26' W 123°20'5 9.6
2017-Apr-20 19:30N 49°25' W 123°27'2 4.3
2017-Apr-20 19:00N 49°24' W 123°30'0 0.0
2017-Apr-20 18:29N 49°24' W 123°30'0 0.0
2017-Apr-20 18:00N 49°24' W 123°30'0 0.0
2017-Apr-20 17:30N 49°24' W 123°30'0 0.0
2017-Apr-20 16:59N 49°24' W 123°30'0 0.0
2017-Apr-20 16:28N 49°24' W 123°30'0 0.0
2017-Apr-20 15:58N 49°24' W 123°30'0 0.0
2017-Apr-20 15:30N 49°24' W 123°30'0 0.0
2017-Apr-20 15:00N 49°24' W 123°30'0 0.0
2017-Apr-20 14:00N 49°24' W 123°30'0 0.0
2017-Apr-20 13:30N 49°24' W 123°30'0 0.0
2017-Apr-20 13:00N 49°24' W 123°30'0 0.0
2017-Apr-20 12:29N 49°24' W 123°30'0 0.0
2017-Apr-20 11:59N 49°24' W 123°30'0 0.0
2017-Apr-20 11:28N 49°24' W 123°30'0 0.0
2017-Apr-20 11:00N 49°24' W 123°30'0 0.0
2017-Apr-20 10:30N 49°24' W 123°30'0 0.0
2017-Apr-20 10:00N 49°24' W 123°30'0 0.0
2017-Apr-20 09:30N 49°24' W 123°30'0 0.0
2017-Apr-20 09:00N 49°24' W 123°30'0 0.0
2017-Apr-20 08:30N 49°24' W 123°30'0 0.0
2017-Apr-20 08:00N 49°24' W 123°30'0 0.0
2017-Apr-20 07:30N 49°24' W 123°30'0 0.0
2017-Apr-20 07:00N 49°24' W 123°30'0 0.0
2017-Apr-20 06:30N 49°24' W 123°30'0 0.0
2017-Apr-20 06:00N 49°24' W 123°30'0 0.0
2017-Apr-20 05:29N 49°24' W 123°30'0 0.0
2017-Apr-20 04:53N 49°24' W 123°30'0 0.0
2017-Apr-20 04:29N 49°24' W 123°30'0 0.0
2017-Apr-20 03:43N 49°24' W 123°30'0 0.0
2017-Apr-20 02:58N 49°24' W 123°30'0 0.0
2017-Apr-20 02:30N 49°24' W 123°30'0 0.0
2017-Apr-20 02:00N 49°24' W 123°30'0 0.0
2017-Apr-20 01:27N 49°24' W 123°30'0 0.0
2017-Apr-20 01:00N 49°24' W 123°30'0 0.0
2017-Apr-20 00:29N 49°24' W 123°30'3 5.7
2017-Apr-20 00:00N 49°25' W 123°26'5 9.6
2017-Apr-19 23:30N 49°26' W 123°19'2 3.8
2017-Apr-19 23:00N 49°28' W 123°18'1 2.4
2017-Apr-19 22:30N 49°29' W 123°20'0 0.6
2017-Apr-19 22:00N 49°29' W 123°19'2 4.1
2017-Apr-19 21:30N 49°27' W 123°17'4 8.1
2017-Apr-19 21:00N 49°23' W 123°16'2 3.3
2017-Apr-19 20:30N 49°25' W 123°15'4 7.1
2017-Apr-19 20:00N 49°28' W 123°18'2 3.2
2017-Apr-19 19:30N 49°29' W 123°20'3 6.1
2017-Apr-19 19:00N 49°26' W 123°19'4 7.9
2017-Apr-19 18:30N 49°25' W 123°25'4 1.2
2017-Apr-19 15:29N 49°24' W 123°30'0 0.0
2017-Apr-19 14:59N 49°24' W 123°30'0 0.0
2017-Apr-19 14:20N 49°24' W 123°30'0 0.0
2017-Apr-19 12:41N 49°24' W 123°30'0 0.0
2017-Apr-19 12:26N 49°24' W 123°30'0 0.0
2017-Apr-19 10:05N 49°24' W 123°30'0 0.0
2017-Apr-19 04:23N 49°24' W 123°30'0 0.0
2017-Apr-19 01:32N 49°24' W 123°30'0 0.0
2017-Apr-19 01:18N 49°24' W 123°30'1 2.3
2017-Apr-19 01:00N 49°24' W 123°29'3 6.7
2017-Apr-19 00:30N 49°25' W 123°24'4 7.9
2017-Apr-19 00:00N 49°26' W 123°18'1 2.5
2017-Apr-18 23:30N 49°27' W 123°17'1 2.2
2017-Apr-18 23:00N 49°28' W 123°18'1 2.0
2017-Apr-18 22:30N 49°29' W 123°19'1 1.7
2017-Apr-18 22:00N 49°29' W 123°20'3 5.9
2017-Apr-18 21:30N 49°26' W 123°20'1 1.9
2017-Apr-18 21:00N 49°26' W 123°21'0 0.8
2017-Apr-18 20:30N 49°26' W 123°20'1 1.5
2017-Apr-18 20:00N 49°26' W 123°21'1 2.3
2017-Apr-18 19:30N 49°27' W 123°20'1 2.7
2017-Apr-18 19:00N 49°26' W 123°21'0 0.4
2017-Apr-18 18:30N 49°26' W 123°21'1 2.2
2017-Apr-18 18:00N 49°25' W 123°20'1 2.5
2017-Apr-18 17:30N 49°25' W 123°22'2 3.2
2017-Apr-18 17:00N 49°25' W 123°20'1 2.8
2017-Apr-18 16:30N 49°25' W 123°22'0 0.7
2017-Apr-18 16:00N 49°25' W 123°21'1 1.1
2017-Apr-18 15:30N 49°25' W 123°20'2 4.1
2017-Apr-18 15:00N 49°25' W 123°23'5 2.4
2017-Apr-18 13:06N 49°24' W 123°30'0 0.0
2017-Apr-18 11:39N 49°24' W 123°30'0 0.0
2017-Apr-18 11:24N 49°24' W 123°30'0 0.0
2017-Apr-18 08:12N 49°24' W 123°30'0 0.0
2017-Apr-18 06:57N 49°24' W 123°30'0 0.0
2017-Apr-18 06:30N 49°24' W 123°30'0 0.0
2017-Apr-18 06:00N 49°24' W 123°30'0 0.0
2017-Apr-18 05:18N 49°24' W 123°30'0 0.0
2017-Apr-18 05:00N 49°24' W 123°30'0 0.0
2017-Apr-18 04:27N 49°24' W 123°30'0 0.0
2017-Apr-18 04:00N 49°24' W 123°30'0 0.0
2017-Apr-18 03:30N 49°24' W 123°30'0 0.0
2017-Apr-18 02:57N 49°24' W 123°30'0 0.0
2017-Apr-18 02:30N 49°24' W 123°30'0 0.0
2017-Apr-18 02:00N 49°24' W 123°30'1 2.5
2017-Apr-18 01:30N 49°25' W 123°29'3 5.2
2017-Apr-18 01:00N 49°23' W 123°26'1 1.7
2017-Apr-18 00:30N 49°23' W 123°25'0 0.6
2017-Apr-18 00:01N 49°23' W 123°25'2 3.2
2017-Apr-17 23:30N 49°25' W 123°24'1 2.9
2017-Apr-17 23:00N 49°24' W 123°25'1 2.4
2017-Apr-17 22:30N 49°24' W 123°24'2 4.0
2017-Apr-17 22:00N 49°23' W 123°26'5 9.3
2017-Apr-17 21:30N 49°21' W 123°33'5 9.2
2017-Apr-17 21:00N 49°19' W 123°39'5 8.9
2017-Apr-17 20:30N 49°16' W 123°44'5 9.4
2017-Apr-17 20:00N 49°13' W 123°50'5 9.2
2017-Apr-17 19:30N 49°10' W 123°55'0 0.8
2017-Apr-17 19:00N 49°10' W 123°56'0 0.0
2017-Apr-17 18:30N 49°10' W 123°56'0 0.0
2017-Apr-17 18:00N 49°10' W 123°56'0 0.0
2017-Apr-17 17:28N 49°10' W 123°56'0 0.0
2017-Apr-17 17:00N 49°10' W 123°56'0 0.0
2017-Apr-17 16:31N 49°10' W 123°56'0 0.0
2017-Apr-17 16:01N 49°10' W 123°56'0 0.0
2017-Apr-17 15:30N 49°10' W 123°56'0 0.0
2017-Apr-17 15:00N 49°10' W 123°56'0 0.0
2017-Apr-17 14:00N 49°10' W 123°56'0 0.0
2017-Apr-17 13:30N 49°10' W 123°56'0 0.0
2017-Apr-17 13:01N 49°10' W 123°56'0 0.0
2017-Apr-17 12:30N 49°10' W 123°56'0 0.0
2017-Apr-17 12:00N 49°10' W 123°56'0 0.0
2017-Apr-17 11:30N 49°10' W 123°56'0 0.0
2017-Apr-17 11:00N 49°10' W 123°56'0 0.0
2017-Apr-17 10:26N 49°10' W 123°56'0 0.0
2017-Apr-17 09:58N 49°10' W 123°56'0 0.0
2017-Apr-17 09:27N 49°10' W 123°56'0 0.0
2017-Apr-17 09:00N 49°10' W 123°56'0 0.0
2017-Apr-17 08:30N 49°10' W 123°56'0 0.0
2017-Apr-17 07:59N 49°10' W 123°56'0 0.0
2017-Apr-17 07:31N 49°10' W 123°56'0 0.0
2017-Apr-17 07:00N 49°10' W 123°56'0 0.0
2017-Apr-17 06:30N 49°10' W 123°56'0 0.0
2017-Apr-17 06:00N 49°10' W 123°56'0 0.0
2017-Apr-17 05:30N 49°10' W 123°56'0 0.0
2017-Apr-17 05:00N 49°10' W 123°56'0 0.0
2017-Apr-17 04:30N 49°10' W 123°56'1 2.5
2017-Apr-17 04:00N 49°10' W 123°54'4 8.9
2017-Apr-17 03:30N 49°08' W 123°48'2 4.6
2017-Apr-17 02:59N 49°06' W 123°46'2 4.4
2017-Apr-17 02:30N 49°04' W 123°45'3 6.0
2017-Apr-17 02:00N 49°01' W 123°44'4 8.1
2017-Apr-17 01:30N 48°57' W 123°42'5 9.6
2017-Apr-17 01:00N 48°54' W 123°37'5 9.3
2017-Apr-17 00:31N 48°49' W 123°35'5 9.3
2017-Apr-17 00:00N 48°45' W 123°34'5 9.4
2017-Apr-16 23:30N 48°41' W 123°30'2 4.3
2017-Apr-16 22:58N 48°39' W 123°27'0 0.0
2017-Apr-16 22:28N 48°39' W 123°27'0 0.0
2017-Apr-16 21:58N 48°39' W 123°27'0 0.0
2017-Apr-16 21:28N 48°39' W 123°27'0 0.0
2017-Apr-16 20:58N 48°39' W 123°27'0 0.0
2017-Apr-16 20:28N 48°39' W 123°27'0 0.0
2017-Apr-16 19:58N 48°39' W 123°27'0 0.0
2017-Apr-16 19:28N 48°39' W 123°27'0 0.0
2017-Apr-16 18:58N 48°39' W 123°27'0 0.0
2017-Apr-16 18:28N 48°39' W 123°27'0 0.0
2017-Apr-16 17:58N 48°39' W 123°27'0 0.0
2017-Apr-16 17:28N 48°39' W 123°27'0 0.0
2017-Apr-16 16:58N 48°39' W 123°27'0 0.0
2017-Apr-16 16:28N 48°39' W 123°27'0 0.0
2017-Apr-16 15:52N 48°39' W 123°27'0 0.0
2017-Apr-16 15:28N 48°39' W 123°27'0 0.0
2017-Apr-16 14:58N 48°39' W 123°27'0 0.0
2017-Apr-16 13:58N 48°39' W 123°27'0 0.0
2017-Apr-16 13:28N 48°39' W 123°27'0 0.0
2017-Apr-16 12:58N 48°39' W 123°27'0 0.0
2017-Apr-16 12:28N 48°39' W 123°27'0 0.0
2017-Apr-16 11:58N 48°39' W 123°27'0 0.0
2017-Apr-16 11:28N 48°39' W 123°27'0 0.0
2017-Apr-16 10:58N 48°39' W 123°27'0 0.0
2017-Apr-16 10:28N 48°39' W 123°27'0 0.0
2017-Apr-16 09:58N 48°39' W 123°27'0 0.0
2017-Apr-16 09:28N 48°39' W 123°27'0 0.0
2017-Apr-16 08:58N 48°39' W 123°27'0 0.1
2017-Apr-16 08:28N 48°39' W 123°27'0 0.1
2017-Apr-16 07:58N 48°39' W 123°27'0 0.0
2017-Apr-16 07:28N 48°39' W 123°27'0 0.0
2017-Apr-16 06:58N 48°39' W 123°27'0 0.0
2017-Apr-16 06:28N 48°39' W 123°27'0 0.0
2017-Apr-16 05:58N 48°39' W 123°27'0 0.0
2017-Apr-16 05:28N 48°39' W 123°27'0 0.0
2017-Apr-16 04:58N 48°39' W 123°27'0 0.0
2017-Apr-16 04:28N 48°39' W 123°27'0 0.0
2017-Apr-16 03:58N 48°39' W 123°27'0 0.0
2017-Apr-16 03:28N 48°39' W 123°27'0 0.0
2017-Apr-16 02:58N 48°39' W 123°27'0 0.0
2017-Apr-16 02:28N 48°39' W 123°27'0 0.0
2017-Apr-16 01:58N 48°39' W 123°27'0 0.0
2017-Apr-16 01:28N 48°39' W 123°27'0 0.0
2017-Apr-16 00:58N 48°39' W 123°27'0 0.0
2017-Apr-16 00:28N 48°39' W 123°27'0 0.0
2017-Apr-15 23:58N 48°39' W 123°27'0 0.0
2017-Apr-15 23:28N 48°39' W 123°27'0 0.0
2017-Apr-15 22:58N 48°39' W 123°27'0 0.0
2017-Apr-15 22:28N 48°39' W 123°27'0 0.0
2017-Apr-15 21:58N 48°39' W 123°27'0 0.0
2017-Apr-15 21:28N 48°39' W 123°27'0 0.0
2017-Apr-15 20:58N 48°39' W 123°27'0 0.0
2017-Apr-15 20:28N 48°39' W 123°27'0 0.0
2017-Apr-15 19:58N 48°39' W 123°27'0 0.0
2017-Apr-15 19:28N 48°39' W 123°27'0 0.0
2017-Apr-15 18:58N 48°39' W 123°27'0 0.0
2017-Apr-15 18:28N 48°39' W 123°27'0 0.0
2017-Apr-15 17:58N 48°39' W 123°27'0 0.0
2017-Apr-15 17:28N 48°39' W 123°27'0 0.0
2017-Apr-15 16:58N 48°39' W 123°27'0 0.0
2017-Apr-15 16:28N 48°39' W 123°27'0 0.0
2017-Apr-15 15:52N 48°39' W 123°27'0 0.0
2017-Apr-15 15:28N 48°39' W 123°27'0 0.0
2017-Apr-15 14:58N 48°39' W 123°27'0 0.0
2017-Apr-15 14:28N 48°39' W 123°27'0 0.0
2017-Apr-15 13:28N 48°39' W 123°27'0 0.0
2017-Apr-15 12:58N 48°39' W 123°27'0 0.0
2017-Apr-15 12:28N 48°39' W 123°27'0 0.1
2017-Apr-15 11:58N 48°39' W 123°27'0 0.0
2017-Apr-15 11:28N 48°39' W 123°27'0 0.0
2017-Apr-15 10:58N 48°39' W 123°27'0 0.1
2017-Apr-15 10:28N 48°39' W 123°27'0 0.1
2017-Apr-15 09:58N 48°39' W 123°27'0 0.1
2017-Apr-15 09:28N 48°39' W 123°27'0 0.0
2017-Apr-15 08:58N 48°39' W 123°27'0 0.0
2017-Apr-15 08:28N 48°39' W 123°27'0 0.0
2017-Apr-15 07:58N 48°39' W 123°27'0 0.0
2017-Apr-15 07:28N 48°39' W 123°27'0 0.0
2017-Apr-15 06:58N 48°39' W 123°27'0 0.0
2017-Apr-15 06:28N 48°39' W 123°27'0 0.0
2017-Apr-15 05:58N 48°39' W 123°27'0 0.0
2017-Apr-15 05:28N 48°39' W 123°27'0 0.0
2017-Apr-15 04:58N 48°39' W 123°27'0 0.0
2017-Apr-15 04:28N 48°39' W 123°27'0 0.0
2017-Apr-15 03:58N 48°39' W 123°27'0 0.0
2017-Apr-15 03:28N 48°39' W 123°27'0 0.0
2017-Apr-15 02:58N 48°39' W 123°27'0 0.0
2017-Apr-15 02:28N 48°39' W 123°27'0 0.0
2017-Apr-15 01:58N 48°39' W 123°27'0 0.0
2017-Apr-15 01:28N 48°39' W 123°27'0 0.0
2017-Apr-15 00:58N 48°39' W 123°27'0 0.0
2017-Apr-15 00:28N 48°39' W 123°27'0 0.0
2017-Apr-14 23:58N 48°39' W 123°27'0 0.0
2017-Apr-14 23:28N 48°39' W 123°27'0 0.0
2017-Apr-14 22:58N 48°39' W 123°27'0 0.0
2017-Apr-14 22:28N 48°39' W 123°27'0 0.0
2017-Apr-14 21:58N 48°39' W 123°27'0 0.0
2017-Apr-14 21:28N 48°39' W 123°27'0 0.0
2017-Apr-14 20:52N 48°39' W 123°27'0 0.0
2017-Apr-14 20:28N 48°39' W 123°27'0 0.0
2017-Apr-14 19:58N 48°39' W 123°27'0 0.0
2017-Apr-14 19:28N 48°39' W 123°27'0 0.0
2017-Apr-14 18:58N 48°39' W 123°27'0 0.0
2017-Apr-14 18:28N 48°39' W 123°27'0 0.0
2017-Apr-14 17:58N 48°39' W 123°27'0 0.0
2017-Apr-14 17:28N 48°39' W 123°27'0 0.0
2017-Apr-14 16:58N 48°39' W 123°27'0 0.0
2017-Apr-14 16:28N 48°39' W 123°27'0 0.0
2017-Apr-14 15:58N 48°39' W 123°27'0 0.0
2017-Apr-14 15:28N 48°39' W 123°27'0 0.0
2017-Apr-14 14:58N 48°39' W 123°27'0 0.0
2017-Apr-14 14:28N 48°39' W 123°27'0 0.0
2017-Apr-14 13:28N 48°39' W 123°27'0 0.0
2017-Apr-14 12:58N 48°39' W 123°27'0 0.1
2017-Apr-14 12:28N 48°39' W 123°27'0 0.0
2017-Apr-14 11:58N 48°39' W 123°27'0 0.0
2017-Apr-14 11:28N 48°39' W 123°27'0 0.0
2017-Apr-14 10:58N 48°39' W 123°27'0 0.0
2017-Apr-14 10:28N 48°39' W 123°27'0 0.0
2017-Apr-14 09:58N 48°39' W 123°27'0 0.0
2017-Apr-14 09:28N 48°39' W 123°27'0 0.0
2017-Apr-14 08:58N 48°39' W 123°27'0 0.0
2017-Apr-14 08:28N 48°39' W 123°27'0 0.0
2017-Apr-14 07:58N 48°39' W 123°27'0 0.0
2017-Apr-14 07:28N 48°39' W 123°27'0 0.0
2017-Apr-14 06:58N 48°39' W 123°27'0 0.0
2017-Apr-14 06:28N 48°39' W 123°27'0 0.0
2017-Apr-14 05:58N 48°39' W 123°27'0 0.0
2017-Apr-14 05:28N 48°39' W 123°27'0 0.1
2017-Apr-14 04:58N 48°39' W 123°27'0 0.1
2017-Apr-14 04:28N 48°39' W 123°27'0 0.0
2017-Apr-14 03:58N 48°39' W 123°27'0 0.0
2017-Apr-14 03:28N 48°39' W 123°27'0 0.0
2017-Apr-14 02:58N 48°39' W 123°27'0 0.0
2017-Apr-14 02:28N 48°39' W 123°27'0 0.0
2017-Apr-14 01:58N 48°39' W 123°27'0 0.0
2017-Apr-14 01:28N 48°39' W 123°27'0 0.0
2017-Apr-14 00:58N 48°39' W 123°27'0 0.0
2017-Apr-14 00:28N 48°39' W 123°27'0 0.0
2017-Apr-13 23:58N 48°39' W 123°27'0 0.0
2017-Apr-13 23:28N 48°39' W 123°27'0 0.0
2017-Apr-13 22:58N 48°39' W 123°27'0 0.0
2017-Apr-13 22:28N 48°39' W 123°27'0 0.0
2017-Apr-13 21:58N 48°39' W 123°27'  
Track history (hours):
 
Tides and Currents Weather Stations Pressure Air Temp Water Temp Dewpoint Dewpoint Depression Visibility Wind Speed Wind Dir Waves Ship Positions

CCGS Neocaligus

Last reported at 2017-Apr-23 21:30 UTC. Time now 2017-Apr-23 21:50 UTC.
Position N 49°46' W 124°28'.

Length 23 m; draft 3.5 m.

Type: SAR. MMSI: 316001759.

Date/timePositionNaut miles runAvg speedWind from/ knotsBaromVisibWave heightAir tempDewpointWater temp
2017-Apr-23 21:30N 49°46' W 124°28'4 8.5
2017-Apr-23 21:00N 49°48' W 124°33'3 6.6
2017-Apr-23 20:31N 49°49' W 124°38'4 8.8
2017-Apr-23 20:01N 49°45' W 124°42'3 5.1
2017-Apr-23 19:30N 49°42' W 124°43'0 0.3
2017-Apr-23 19:00N 49°42' W 124°43'3 6.2
2017-Apr-23 18:29N 49°39' W 124°41'4 8.4
2017-Apr-23 17:59N 49°36' W 124°37'4 8.7
2017-Apr-23 17:29N 49°32' W 124°34'4 8.9
2017-Apr-23 17:00N 49°28' W 124°31'1 1.2
2017-Apr-23 16:30N 49°28' W 124°30'0 0.1
2017-Apr-23 16:01N 49°28' W 124°30'3 5.7
2017-Apr-23 15:30N 49°28' W 124°34'4 8.4
2017-Apr-23 15:00N 49°28' W 124°41'2 1.9
2017-Apr-23 14:00N 49°28' W 124°44'0 0.0
2017-Apr-23 13:11N 49°28' W 124°44'0 0.0
2017-Apr-23 11:40N 49°28' W 124°44'0 0.0
2017-Apr-23 11:13N 49°28' W 124°44'0 0.0
2017-Apr-23 10:40N 49°28' W 124°44'0 0.0
2017-Apr-23 09:22N 49°28' W 124°44'0 0.0
2017-Apr-23 08:43N 49°28' W 124°44'0 0.0
2017-Apr-23 08:22N 49°28' W 124°44'0 0.0
2017-Apr-23 07:52N 49°28' W 124°44'0 0.0
2017-Apr-23 03:05N 49°28' W 124°44'0 0.0
2017-Apr-23 02:49N 49°28' W 124°44'0 0.0
2017-Apr-23 02:28N 49°28' W 124°44'2 4.1
2017-Apr-23 01:57N 49°28' W 124°40'5 9.8
2017-Apr-23 01:28N 49°27' W 124°34'4 8.9
2017-Apr-23 01:00N 49°26' W 124°27'4 8.7
2017-Apr-23 00:30N 49°25' W 124°21'5 9.2
2017-Apr-23 00:00N 49°24' W 124°14'4 9.0
2017-Apr-22 23:30N 49°23' W 124°07'2 3.2
2017-Apr-22 23:00N 49°22' W 124°05'3 5.1
2017-Apr-22 22:30N 49°21' W 124°02'5 9.4
2017-Apr-22 22:00N 49°18' W 123°55'5 9.2
2017-Apr-22 21:30N 49°16' W 123°49'3 6.0
2017-Apr-22 21:00N 49°15' W 123°45'0 0.0
2017-Apr-22 20:30N 49°15' W 123°45'1 2.9
2017-Apr-22 19:59N 49°14' W 123°47'4 9.0
2017-Apr-22 19:30N 49°12' W 123°53'3 1.3
2017-Apr-22 17:23N 49°10' W 123°56'0 0.0
2017-Apr-22 16:59N 49°10' W 123°56'0 0.0
2017-Apr-22 16:08N 49°10' W 123°56'0 0.1
2017-Apr-22 15:56N 49°10' W 123°56'0 0.2
2017-Apr-22 14:34N 49°10' W 123°56'0 0.1
2017-Apr-22 14:28N 49°10' W 123°56'0 0.0
2017-Apr-22 09:16N 49°10' W 123°56'0 0.0
2017-Apr-22 08:40N 49°10' W 123°56'0 0.0
2017-Apr-22 08:25N 49°10' W 123°56'0 0.0
2017-Apr-22 07:52N 49°10' W 123°56'0 0.0
2017-Apr-22 06:55N 49°10' W 123°56'0 0.0
2017-Apr-22 06:25N 49°10' W 123°56'0 0.0
2017-Apr-22 05:49N 49°10' W 123°56'0 0.0
2017-Apr-22 05:19N 49°10' W 123°56'0 0.0
2017-Apr-22 04:43N 49°10' W 123°56'0 0.0
2017-Apr-22 04:28N 49°10' W 123°56'0 0.0
2017-Apr-22 03:25N 49°10' W 123°56'0 0.0
2017-Apr-22 02:37N 49°10' W 123°56'0 0.0
2017-Apr-22 02:13N 49°10' W 123°56'0 0.0
2017-Apr-22 01:58N 49°10' W 123°56'0 0.0
2017-Apr-22 01:28N 49°10' W 123°56'0 0.1
2017-Apr-22 00:58N 49°10' W 123°56'0 0.0
2017-Apr-21 23:39N 49°10' W 123°56'0 0.0
2017-Apr-21 22:41N 49°10' W 123°56'0 0.0
2017-Apr-21 22:26N 49°10' W 123°56'2 5.1
2017-Apr-21 21:59N 49°12' W 123°53'5 9.7
2017-Apr-21 21:30N 49°14' W 123°47'5 9.5
2017-Apr-21 21:00N 49°15' W 123°40'5 9.4
2017-Apr-21 20:30N 49°17' W 123°33'5 9.3
2017-Apr-21 20:00N 49°18' W 123°26'5 9.3
2017-Apr-21 19:30N 49°21' W 123°20'1 1.6
2017-Apr-21 19:00N 49°20' W 123°21'1 2.4
2017-Apr-21 18:30N 49°21' W 123°20'2 3.1
2017-Apr-21 18:00N 49°20' W 123°22'1 2.8
2017-Apr-21 17:31N 49°21' W 123°20'2 4.0
2017-Apr-21 17:00N 49°23' W 123°18'5 9.5
2017-Apr-21 16:30N 49°27' W 123°15'3 5.6
2017-Apr-21 16:00N 49°30' W 123°16'0 0.1
2017-Apr-21 15:30N 49°30' W 123°15'1 1.2
2017-Apr-21 15:00N 49°29' W 123°15'4 7.4
2017-Apr-21 14:30N 49°25' W 123°15'4 2.5
2017-Apr-21 12:55N 49°23' W 123°20'0 0.0
2017-Apr-21 12:13N 49°23' W 123°20'0 0.0
2017-Apr-21 11:43N 49°23' W 123°20'0 0.0
2017-Apr-21 11:22N 49°23' W 123°20'0 0.0
2017-Apr-21 10:49N 49°23' W 123°20'0 0.0
2017-Apr-21 10:19N 49°23' W 123°20'0 0.0
2017-Apr-21 09:55N 49°23' W 123°20'0 0.0
2017-Apr-21 09:28N 49°23' W 123°20'0 0.0
2017-Apr-21 08:58N 49°23' W 123°20'0 0.0
2017-Apr-21 08:28N 49°23' W 123°20'0 0.0
2017-Apr-21 07:49N 49°23' W 123°20'0 0.0
2017-Apr-21 07:28N 49°23' W 123°20'0 0.0
2017-Apr-21 06:58N 49°23' W 123°20'0 0.0
2017-Apr-21 05:46N 49°23' W 123°20'0 0.0
2017-Apr-21 05:28N 49°23' W 123°20'0 0.0
2017-Apr-21 04:46N 49°23' W 123°20'0 0.0
2017-Apr-21 04:19N 49°23' W 123°20'0 0.0
2017-Apr-21 03:52N 49°23' W 123°20'0 0.0
2017-Apr-21 03:19N 49°23' W 123°20'0 0.0
2017-Apr-21 02:55N 49°23' W 123°20'0 0.0
2017-Apr-21 02:30N 49°23' W 123°20'2 3.2
2017-Apr-21 02:00N 49°24' W 123°18'5 9.4
2017-Apr-21 01:30N 49°29' W 123°17'5 9.2
2017-Apr-21 01:00N 49°33' W 123°16'5 9.2
2017-Apr-21 00:30N 49°37' W 123°13'2 3.4
2017-Apr-21 00:00N 49°39' W 123°14'1 2.2
2017-Apr-20 23:30N 49°38' W 123°13'1 2.1
2017-Apr-20 23:00N 49°37' W 123°14'2 3.1
2017-Apr-20 22:30N 49°39' W 123°15'1 1.5
2017-Apr-20 22:00N 49°38' W 123°15'1 1.0
2017-Apr-20 21:30N 49°39' W 123°15'4 7.8
2017-Apr-20 21:00N 49°35' W 123°15'5 9.4
2017-Apr-20 20:30N 49°30' W 123°17'5 9.1
2017-Apr-20 20:00N 49°26' W 123°20'5 9.6
2017-Apr-20 19:30N 49°25' W 123°27'2 4.3
2017-Apr-20 19:00N 49°24' W 123°30'0 0.0
2017-Apr-20 18:29N 49°24' W 123°30'0 0.0
2017-Apr-20 18:00N 49°24' W 123°30'0 0.0
2017-Apr-20 17:30N 49°24' W 123°30'0 0.0
2017-Apr-20 16:59N 49°24' W 123°30'0 0.0
2017-Apr-20 16:28N 49°24' W 123°30'0 0.0
2017-Apr-20 15:58N 49°24' W 123°30'0 0.0
2017-Apr-20 15:30N 49°24' W 123°30'0 0.0
2017-Apr-20 15:00N 49°24' W 123°30'0 0.0
2017-Apr-20 14:00N 49°24' W 123°30'0 0.0
2017-Apr-20 13:30N 49°24' W 123°30'0 0.0
2017-Apr-20 13:00N 49°24' W 123°30'0 0.0
2017-Apr-20 12:29N 49°24' W 123°30'0 0.0
2017-Apr-20 11:59N 49°24' W 123°30'0 0.0
2017-Apr-20 11:28N 49°24' W 123°30'0 0.0
2017-Apr-20 11:00N 49°24' W 123°30'0 0.0
2017-Apr-20 10:30N 49°24' W 123°30'0 0.0
2017-Apr-20 10:00N 49°24' W 123°30'0 0.0
2017-Apr-20 09:30N 49°24' W 123°30'0 0.0
2017-Apr-20 09:00N 49°24' W 123°30'0 0.0
2017-Apr-20 08:30N 49°24' W 123°30'0 0.0
2017-Apr-20 08:00N 49°24' W 123°30'0 0.0
2017-Apr-20 07:30N 49°24' W 123°30'0 0.0
2017-Apr-20 07:00N 49°24' W 123°30'0 0.0
2017-Apr-20 06:30N 49°24' W 123°30'0 0.0
2017-Apr-20 06:00N 49°24' W 123°30'0 0.0
2017-Apr-20 05:29N 49°24' W 123°30'0 0.0
2017-Apr-20 04:53N 49°24' W 123°30'0 0.0
2017-Apr-20 04:29N 49°24' W 123°30'0 0.0
2017-Apr-20 03:43N 49°24' W 123°30'0 0.0
2017-Apr-20 02:58N 49°24' W 123°30'0 0.0
2017-Apr-20 02:30N 49°24' W 123°30'0 0.0
2017-Apr-20 02:00N 49°24' W 123°30'0 0.0
2017-Apr-20 01:27N 49°24' W 123°30'0 0.0
2017-Apr-20 01:00N 49°24' W 123°30'0 0.0
2017-Apr-20 00:29N 49°24' W 123°30'3 5.7
2017-Apr-20 00:00N 49°25' W 123°26'5 9.6
2017-Apr-19 23:30N 49°26' W 123°19'2 3.8
2017-Apr-19 23:00N 49°28' W 123°18'1 2.4
2017-Apr-19 22:30N 49°29' W 123°20'0 0.6
2017-Apr-19 22:00N 49°29' W 123°19'2 4.1
2017-Apr-19 21:30N 49°27' W 123°17'4 8.1
2017-Apr-19 21:00N 49°23' W 123°16'2 3.3
2017-Apr-19 20:30N 49°25' W 123°15'4 7.1
2017-Apr-19 20:00N 49°28' W 123°18'2 3.2
2017-Apr-19 19:30N 49°29' W 123°20'3 6.1
2017-Apr-19 19:00N 49°26' W 123°19'4 7.9
2017-Apr-19 18:30N 49°25' W 123°25'4 1.2
2017-Apr-19 15:29N 49°24' W 123°30'0 0.0
2017-Apr-19 14:59N 49°24' W 123°30'0 0.0
2017-Apr-19 14:20N 49°24' W 123°30'0 0.0
2017-Apr-19 12:41N 49°24' W 123°30'0 0.0
2017-Apr-19 12:26N 49°24' W 123°30'0 0.0
2017-Apr-19 10:05N 49°24' W 123°30'0 0.0
2017-Apr-19 04:23N 49°24' W 123°30'0 0.0
2017-Apr-19 01:32N 49°24' W 123°30'0 0.0
2017-Apr-19 01:18N 49°24' W 123°30'1 2.3
2017-Apr-19 01:00N 49°24' W 123°29'3 6.7
2017-Apr-19 00:30N 49°25' W 123°24'4 7.9
2017-Apr-19 00:00N 49°26' W 123°18'1 2.5
2017-Apr-18 23:30N 49°27' W 123°17'1 2.2
2017-Apr-18 23:00N 49°28' W 123°18'1 2.0
2017-Apr-18 22:30N 49°29' W 123°19'1 1.7
2017-Apr-18 22:00N 49°29' W 123°20'3 5.9
2017-Apr-18 21:30N 49°26' W 123°20'1 1.9
2017-Apr-18 21:00N 49°26' W 123°21'0 0.8
2017-Apr-18 20:30N 49°26' W 123°20'1 1.5
2017-Apr-18 20:00N 49°26' W 123°21'1 2.3
2017-Apr-18 19:30N 49°27' W 123°20'1 2.7
2017-Apr-18 19:00N 49°26' W 123°21'0 0.4
2017-Apr-18 18:30N 49°26' W 123°21'1 2.2
2017-Apr-18 18:00N 49°25' W 123°20'1 2.5
2017-Apr-18 17:30N 49°25' W 123°22'2 3.2
2017-Apr-18 17:00N 49°25' W 123°20'1 2.8
2017-Apr-18 16:30N 49°25' W 123°22'0 0.7
2017-Apr-18 16:00N 49°25' W 123°21'1 1.1
2017-Apr-18 15:30N 49°25' W 123°20'2 4.1
2017-Apr-18 15:00N 49°25' W 123°23'5 2.4
2017-Apr-18 13:06N 49°24' W 123°30'0 0.0
2017-Apr-18 11:39N 49°24' W 123°30'0 0.0
2017-Apr-18 11:24N 49°24' W 123°30'0 0.0
2017-Apr-18 08:12N 49°24' W 123°30'0 0.0
2017-Apr-18 06:57N 49°24' W 123°30'0 0.0
2017-Apr-18 06:30N 49°24' W 123°30'0 0.0
2017-Apr-18 06:00N 49°24' W 123°30'0 0.0
2017-Apr-18 05:18N 49°24' W 123°30'0 0.0
2017-Apr-18 05:00N 49°24' W 123°30'0 0.0
2017-Apr-18 04:27N 49°24' W 123°30'0 0.0
2017-Apr-18 04:00N 49°24' W 123°30'0 0.0
2017-Apr-18 03:30N 49°24' W 123°30'0 0.0
2017-Apr-18 02:57N 49°24' W 123°30'0 0.0
2017-Apr-18 02:30N 49°24' W 123°30'0 0.0
2017-Apr-18 02:00N 49°24' W 123°30'1 2.5
2017-Apr-18 01:30N 49°25' W 123°29'3 5.2
2017-Apr-18 01:00N 49°23' W 123°26'1 1.7
2017-Apr-18 00:30N 49°23' W 123°25'0 0.6
2017-Apr-18 00:01N 49°23' W 123°25'2 3.2
2017-Apr-17 23:30N 49°25' W 123°24'1 2.9
2017-Apr-17 23:00N 49°24' W 123°25'1 2.4
2017-Apr-17 22:30N 49°24' W 123°24'2 4.0
2017-Apr-17 22:00N 49°23' W 123°26'5 9.3
2017-Apr-17 21:30N 49°21' W 123°33'5 9.2
2017-Apr-17 21:00N 49°19' W 123°39'5 8.9
2017-Apr-17 20:30N 49°16' W 123°44'5 9.4
2017-Apr-17 20:00N 49°13' W 123°50'5 9.2
2017-Apr-17 19:30N 49°10' W 123°55'0 0.8
2017-Apr-17 19:00N 49°10' W 123°56'0 0.0
2017-Apr-17 18:30N 49°10' W 123°56'0 0.0
2017-Apr-17 18:00N 49°10' W 123°56'0 0.0
2017-Apr-17 17:28N 49°10' W 123°56'0 0.0
2017-Apr-17 17:00N 49°10' W 123°56'0 0.0
2017-Apr-17 16:31N 49°10' W 123°56'0 0.0
2017-Apr-17 16:01N 49°10' W 123°56'0 0.0
2017-Apr-17 15:30N 49°10' W 123°56'0 0.0
2017-Apr-17 15:00N 49°10' W 123°56'0 0.0
2017-Apr-17 14:00N 49°10' W 123°56'0 0.0
2017-Apr-17 13:30N 49°10' W 123°56'0 0.0
2017-Apr-17 13:01N 49°10' W 123°56'0 0.0
2017-Apr-17 12:30N 49°10' W 123°56'0 0.0
2017-Apr-17 12:00N 49°10' W 123°56'0 0.0
2017-Apr-17 11:30N 49°10' W 123°56'0 0.0
2017-Apr-17 11:00N 49°10' W 123°56'0 0.0
2017-Apr-17 10:26N 49°10' W 123°56'0 0.0
2017-Apr-17 09:58N 49°10' W 123°56'0 0.0
2017-Apr-17 09:27N 49°10' W 123°56'0 0.0
2017-Apr-17 09:00N 49°10' W 123°56'0 0.0
2017-Apr-17 08:30N 49°10' W 123°56'0 0.0
2017-Apr-17 07:59N 49°10' W 123°56'0 0.0
2017-Apr-17 07:31N 49°10' W 123°56'0 0.0
2017-Apr-17 07:00N 49°10' W 123°56'0 0.0
2017-Apr-17 06:30N 49°10' W 123°56'0 0.0
2017-Apr-17 06:00N 49°10' W 123°56'0 0.0
2017-Apr-17 05:30N 49°10' W 123°56'0 0.0
2017-Apr-17 05:00N 49°10' W 123°56'0 0.0
2017-Apr-17 04:30N 49°10' W 123°56'1 2.5
2017-Apr-17 04:00N 49°10' W 123°54'4 8.9
2017-Apr-17 03:30N 49°08' W 123°48'2 4.6
2017-Apr-17 02:59N 49°06' W 123°46'2 4.4
2017-Apr-17 02:30N 49°04' W 123°45'3 6.0
2017-Apr-17 02:00N 49°01' W 123°44'4 8.1
2017-Apr-17 01:30N 48°57' W 123°42'5 9.6
2017-Apr-17 01:00N 48°54' W 123°37'5 9.3
2017-Apr-17 00:31N 48°49' W 123°35'5 9.3
2017-Apr-17 00:00N 48°45' W 123°34'5 9.4
2017-Apr-16 23:30N 48°41' W 123°30'2 4.3
2017-Apr-16 22:58N 48°39' W 123°27'0 0.0
2017-Apr-16 22:28N 48°39' W 123°27'0 0.0
2017-Apr-16 21:58N 48°39' W 123°27'0 0.0
2017-Apr-16 21:28N 48°39' W 123°27'0 0.0
2017-Apr-16 20:58N 48°39' W 123°27'0 0.0
2017-Apr-16 20:28N 48°39' W 123°27'0 0.0
2017-Apr-16 19:58N 48°39' W 123°27'0 0.0
2017-Apr-16 19:28N 48°39' W 123°27'0 0.0
2017-Apr-16 18:58N 48°39' W 123°27'0 0.0
2017-Apr-16 18:28N 48°39' W 123°27'0 0.0
2017-Apr-16 17:58N 48°39' W 123°27'0 0.0
2017-Apr-16 17:28N 48°39' W 123°27'0 0.0
2017-Apr-16 16:58N 48°39' W 123°27'0 0.0
2017-Apr-16 16:28N 48°39' W 123°27'0 0.0
2017-Apr-16 15:52N 48°39' W 123°27'0 0.0
2017-Apr-16 15:28N 48°39' W 123°27'0 0.0
2017-Apr-16 14:58N 48°39' W 123°27'0 0.0
2017-Apr-16 13:58N 48°39' W 123°27'0 0.0
2017-Apr-16 13:28N 48°39' W 123°27'0 0.0
2017-Apr-16 12:58N 48°39' W 123°27'0 0.0
2017-Apr-16 12:28N 48°39' W 123°27'0 0.0
2017-Apr-16 11:58N 48°39' W 123°27'0 0.0
2017-Apr-16 11:28N 48°39' W 123°27'0 0.0
2017-Apr-16 10:58N 48°39' W 123°27'0 0.0
2017-Apr-16 10:28N 48°39' W 123°27'0 0.0
2017-Apr-16 09:58N 48°39' W 123°27'0 0.0
2017-Apr-16 09:28N 48°39' W 123°27'0 0.0
2017-Apr-16 08:58N 48°39' W 123°27'0 0.1
2017-Apr-16 08:28N 48°39' W 123°27'0 0.1
2017-Apr-16 07:58N 48°39' W 123°27'0 0.0
2017-Apr-16 07:28N 48°39' W 123°27'0 0.0
2017-Apr-16 06:58N 48°39' W 123°27'0 0.0
2017-Apr-16 06:28N 48°39' W 123°27'0 0.0
2017-Apr-16 05:58N 48°39' W 123°27'0 0.0
2017-Apr-16 05:28N 48°39' W 123°27'0 0.0
2017-Apr-16 04:58N 48°39' W 123°27'0 0.0
2017-Apr-16 04:28N 48°39' W 123°27'0 0.0
2017-Apr-16 03:58N 48°39' W 123°27'0 0.0
2017-Apr-16 03:28N 48°39' W 123°27'0 0.0
2017-Apr-16 02:58N 48°39' W 123°27'0 0.0
2017-Apr-16 02:28N 48°39' W 123°27'0 0.0
2017-Apr-16 01:58N 48°39' W 123°27'0 0.0
2017-Apr-16 01:28N 48°39' W 123°27'0 0.0
2017-Apr-16 00:58N 48°39' W 123°27'0 0.0
2017-Apr-16 00:28N 48°39' W 123°27'0 0.0
2017-Apr-15 23:58N 48°39' W 123°27'0 0.0
2017-Apr-15 23:28N 48°39' W 123°27'0 0.0
2017-Apr-15 22:58N 48°39' W 123°27'0 0.0
2017-Apr-15 22:28N 48°39' W 123°27'0 0.0
2017-Apr-15 21:58N 48°39' W 123°27'0 0.0
2017-Apr-15 21:28N 48°39' W 123°27'0 0.0
2017-Apr-15 20:58N 48°39' W 123°27'0 0.0
2017-Apr-15 20:28N 48°39' W 123°27'0 0.0
2017-Apr-15 19:58N 48°39' W 123°27'0 0.0
2017-Apr-15 19:28N 48°39' W 123°27'0 0.0
2017-Apr-15 18:58N 48°39' W 123°27'0 0.0
2017-Apr-15 18:28N 48°39' W 123°27'0 0.0
2017-Apr-15 17:58N 48°39' W 123°27'0 0.0
2017-Apr-15 17:28N 48°39' W 123°27'0 0.0
2017-Apr-15 16:58N 48°39' W 123°27'0 0.0
2017-Apr-15 16:28N 48°39' W 123°27'0 0.0
2017-Apr-15 15:52N 48°39' W 123°27'0 0.0
2017-Apr-15 15:28N 48°39' W 123°27'0 0.0
2017-Apr-15 14:58N 48°39' W 123°27'0 0.0
2017-Apr-15 14:28N 48°39' W 123°27'0 0.0
2017-Apr-15 13:28N 48°39' W 123°27'0 0.0
2017-Apr-15 12:58N 48°39' W 123°27'0 0.0
2017-Apr-15 12:28N 48°39' W 123°27'0 0.1
2017-Apr-15 11:58N 48°39' W 123°27'0 0.0
2017-Apr-15 11:28N 48°39' W 123°27'0 0.0
2017-Apr-15 10:58N 48°39' W 123°27'0 0.1
2017-Apr-15 10:28N 48°39' W 123°27'0 0.1
2017-Apr-15 09:58N 48°39' W 123°27'0 0.1
2017-Apr-15 09:28N 48°39' W 123°27'0 0.0
2017-Apr-15 08:58N 48°39' W 123°27'0 0.0
2017-Apr-15 08:28N 48°39' W 123°27'0 0.0
2017-Apr-15 07:58N 48°39' W 123°27'0 0.0
2017-Apr-15 07:28N 48°39' W 123°27'0 0.0
2017-Apr-15 06:58N 48°39' W 123°27'0 0.0
2017-Apr-15 06:28N 48°39' W 123°27'0 0.0
2017-Apr-15 05:58N 48°39' W 123°27'0 0.0
2017-Apr-15 05:28N 48°39' W 123°27'0 0.0
2017-Apr-15 04:58N 48°39' W 123°27'0 0.0
2017-Apr-15 04:28N 48°39' W 123°27'0 0.0
2017-Apr-15 03:58N 48°39' W 123°27'0 0.0
2017-Apr-15 03:28N 48°39' W 123°27'0 0.0
2017-Apr-15 02:58N 48°39' W 123°27'0 0.0
2017-Apr-15 02:28N 48°39' W 123°27'0 0.0
2017-Apr-15 01:58N 48°39' W 123°27'0 0.0
2017-Apr-15 01:28N 48°39' W 123°27'0 0.0
2017-Apr-15 00:58N 48°39' W 123°27'0 0.0
2017-Apr-15 00:28N 48°39' W 123°27'0 0.0
2017-Apr-14 23:58N 48°39' W 123°27'0 0.0
2017-Apr-14 23:28N 48°39' W 123°27'0 0.0
2017-Apr-14 22:58N 48°39' W 123°27'0 0.0
2017-Apr-14 22:28N 48°39' W 123°27'0 0.0
2017-Apr-14 21:58N 48°39' W 123°27'0 0.0
2017-Apr-14 21:28N 48°39' W 123°27'0 0.0
2017-Apr-14 20:52N 48°39' W 123°27'0 0.0
2017-Apr-14 20:28N 48°39' W 123°27'0 0.0
2017-Apr-14 19:58N 48°39' W 123°27'0 0.0
2017-Apr-14 19:28N 48°39' W 123°27'0 0.0
2017-Apr-14 18:58N 48°39' W 123°27'0 0.0
2017-Apr-14 18:28N 48°39' W 123°27'0 0.0
2017-Apr-14 17:58N 48°39' W 123°27'0 0.0
2017-Apr-14 17:28N 48°39' W 123°27'0 0.0
2017-Apr-14 16:58N 48°39' W 123°27'0 0.0
2017-Apr-14 16:28N 48°39' W 123°27'0 0.0
2017-Apr-14 15:58N 48°39' W 123°27'0 0.0
2017-Apr-14 15:28N 48°39' W 123°27'0 0.0
2017-Apr-14 14:58N 48°39' W 123°27'0 0.0
2017-Apr-14 14:28N 48°39' W 123°27'0 0.0
2017-Apr-14 13:28N 48°39' W 123°27'0 0.0
2017-Apr-14 12:58N 48°39' W 123°27'0 0.1
2017-Apr-14 12:28N 48°39' W 123°27'0 0.0
2017-Apr-14 11:58N 48°39' W 123°27'0 0.0
2017-Apr-14 11:28N 48°39' W 123°27'0 0.0
2017-Apr-14 10:58N 48°39' W 123°27'0 0.0
2017-Apr-14 10:28N 48°39' W 123°27'0 0.0
2017-Apr-14 09:58N 48°39' W 123°27'0 0.0
2017-Apr-14 09:28N 48°39' W 123°27'0 0.0
2017-Apr-14 08:58N 48°39' W 123°27'0 0.0
2017-Apr-14 08:28N 48°39' W 123°27'0 0.0
2017-Apr-14 07:58N 48°39' W 123°27'0 0.0
2017-Apr-14 07:28N 48°39' W 123°27'0 0.0
2017-Apr-14 06:58N 48°39' W 123°27'0 0.0
2017-Apr-14 06:28N 48°39' W 123°27'0 0.0
2017-Apr-14 05:58N 48°39' W 123°27'0 0.0
2017-Apr-14 05:28N 48°39' W 123°27'0 0.1
2017-Apr-14 04:58N 48°39' W 123°27'0 0.1
2017-Apr-14 04:28N 48°39' W 123°27'0 0.0
2017-Apr-14 03:58N 48°39' W 123°27'0 0.0
2017-Apr-14 03:28N 48°39' W 123°27'0 0.0
2017-Apr-14 02:58N 48°39' W 123°27'0 0.0
2017-Apr-14 02:28N 48°39' W 123°27'0 0.0
2017-Apr-14 01:58N 48°39' W 123°27'0 0.0
2017-Apr-14 01:28N 48°39' W 123°27'0 0.0
2017-Apr-14 00:58N 48°39' W 123°27'0 0.0
2017-Apr-14 00:28N 48°39' W 123°27'0 0.0
2017-Apr-13 23:58N 48°39' W 123°27'0 0.0
2017-Apr-13 23:28N 48°39' W 123°27'0 0.0
2017-Apr-13 22:58N 48°39' W 123°27'0 0.0
2017-Apr-13 22:28N 48°39' W 123°27'0 0.0
2017-Apr-13 21:58N 48°39' W 123°27'  

Dump ship's entire track history